Latest Weather Observations for Ceduna

IDS60801

Issued at 10:01 pm CST Saturday 30 July 2016 (issued every 30 minutes, with the page automatically refreshed every 10 minutes)

About weather observations | Map of weather stations | Latest weather observations for SA | Other Formats
Station Details ID: 018012 Name: CEDUNA AMO Lat: -32.13 Lon: 133.70 Height: 15.3 m
Data from the previous 72 hours. | See also: Recent months at Ceduna
Date/Time
CST
Temp
°C
App
Temp
°C
Dew
Point
°C
Rel
Hum
%
Delta-T
°C
Wind Press
QNH
hPa
Press
MSL
hPa
Rain since
9am
mm
Dir  Spd
km/h
Gust
km/h
Spd
kts
Gust
kts
30/10:00pm 13.7 13.4 13.4 98 0.2 NNW 7 46 4 25 1017.5 1017.5 3.6
30/09:30pm 13.5 14.4 13.0 97 0.3 CALM 0 7 0 4 1017.4 1017.4 3.6
30/09:00pm 13.7 13.6 13.2 97 0.3 N 6 7 3 4 1017.4 1017.4 3.4
30/08:30pm 13.9 15.0 13.4 97 0.3 CALM 0 0 0 0 1017.0 1017.0 3.4
30/08:20pm 14.0 14.7 13.5 97 0.3 WSW 2 7 1 4 1017.1 1017.1 3.2
30/08:02pm 14.2 14.2 13.7 97 0.3 W 6 9 3 5 1016.9 1016.9 2.6
30/08:00pm 14.2 14.0 13.7 97 0.3 W 7 9 4 5 1017.0 1017.0 2.6
30/07:30pm 14.1 15.2 13.5 96 0.3 CALM 0 0 0 0 1016.7 1016.7 1.2
30/07:00pm 13.8 14.8 13.2 96 0.3 CALM 0 0 0 0 1016.3 1016.3 1.2
30/06:30pm 14.0 14.3 13.4 96 0.3 SSW 4 7 2 4 1016.3 1016.3 1.2
30/06:00pm 14.3 13.4 13.7 96 0.3 SW 11 15 6 8 1016.7 1016.7 0.8
30/05:30pm 14.4 13.1 13.8 96 0.3 SSW 13 19 7 10 1016.1 1016.1 0.4
30/05:00pm 14.6 12.1 13.6 94 0.6 SW 19 24 10 13 1016.4 1016.4 0.0
30/04:30pm 15.2 12.6 13.2 88 1.1 SW 19 26 10 14 1015.6 1015.6 0.0
30/04:00pm 17.1 11.3 11.6 70 3.0 WSW 33 44 18 24 1015.5 1015.5 0.0
30/03:30pm 18.9 13.9 9.7 55 4.9 WSW 26 35 14 19 1015.0 1015.0 0.0
30/03:00pm 20.6 13.8 7.9 44 6.6 WSW 33 48 18 26 1014.6 1014.6 0.0
30/02:30pm 22.6 16.5 6.8 36 8.1 WSW 28 35 15 19 1014.3 1014.3 0.0
30/02:00pm 23.5 18.6 4.9 30 9.3 WNW 20 30 11 16 1014.1 1014.1 0.0
30/01:30pm 23.8 17.9 5.7 31 9.2 NW 26 33 14 18 1014.0 1014.0 0.0
30/01:00pm 22.6 16.5 6.4 35 8.3 NNW 28 35 15 19 1014.3 1014.3 0.0
30/12:30pm 20.8 14.3 4.8 35 7.8 N 28 35 15 19 1014.7 1014.7 0.0
30/12:00pm 20.3 14.6 5.1 37 7.4 N 24 35 13 19 1015.1 1015.1 0.0
30/11:30am 19.9 13.9 5.2 38 7.2 N 26 39 14 21 1015.3 1015.3 0.0
30/11:00am 19.3 12.9 5.4 40 6.8 N 28 37 15 20 1015.8 1015.8 0.0
30/10:30am 17.9 11.8 6.7 48 5.6 N 28 39 15 21 1016.5 1016.5 0.0
30/10:00am 17.0 10.9 6.5 50 5.2 N 28 37 15 20 1016.4 1016.4 0.0
30/09:30am 16.1 9.4 5.7 50 5.0 N 30 39 16 21 1016.4 1016.4 0.0
30/09:00am 15.9 9.9 5.2 49 5.1 N 26 35 14 19 1016.3 1016.3 0.0
30/08:30am 15.5 9.0 4.8 49 5.0 N 28 39 15 21 1016.3 1016.3 0.0
30/08:00am 15.7 10.5 3.5 44 5.6 N 20 26 11 14 1017.1 1017.1 0.0
30/07:30am 15.9 9.8 3.0 42 5.8 N 24 33 13 18 1016.6 1016.6 0.0
30/07:00am 16.1 9.3 2.9 41 6.0 N 28 37 15 20 1016.4 1016.4 0.0
30/06:30am 15.1 8.7 3.3 45 5.3 N 26 39 14 21 1016.2 1016.2 0.0
30/06:00am 15.1 8.3 3.3 45 5.3 N 28 35 15 19 1016.1 1016.1 0.0
30/05:30am 15.1 8.7 3.3 45 5.3 N 26 37 14 20 1016.3 1016.3 0.0
30/05:00am 15.2 9.2 3.4 45 5.4 N 24 30 13 16 1016.4 1016.4 0.0
30/04:30am 15.3 10.1 3.8 46 5.3 N 20 32 11 17 1016.6 1016.6 0.0
30/04:00am 14.8 9.8 3.6 47 5.1 N 19 22 10 12 1016.9 1016.9 0.0
30/03:30am 14.6 9.5 3.1 46 5.2 N 19 22 10 12 1017.2 1017.2 0.0
30/03:00am 15.1 9.0 3.0 44 5.4 N 24 30 13 16 1017.1 1017.1 0.0
30/02:30am 15.2 9.5 3.0 44 5.5 N 22 32 12 17 1017.3 1017.3 0.0
30/02:00am 14.9 9.6 3.1 45 5.3 NNE 20 26 11 14 1017.6 1017.6 0.0
30/01:30am 15.0 9.9 3.2 45 5.3 NNE 19 24 10 13 1017.7 1017.7 0.0
30/01:00am 12.6 8.5 4.6 58 3.7 NE 15 19 8 10 1018.1 1018.1 0.0
30/12:30am 13.3 8.7 3.9 53 4.2 NNE 17 22 9 12 1018.7 1018.7 0.0
30/12:00am 14.7 9.4 3.2 46 5.2 NNE 20 24 11 13 1019.1 1019.1 0.0
 
Date/Time
CST
Temp
°C
App
Temp
°C
Dew
Point
°C
Rel
Hum
%
Delta-T
°C
Wind Press
QNH
hPa
Press
MSL
hPa
Rain since
9am
mm
Dir  Spd
km/h
Gust
km/h
Spd
kts
Gust
kts
29/11:30pm 14.8 9.6 3.6 47 5.1 NNE 20 24 11 13 1019.4 1019.4 0.0
29/11:00pm 13.2 9.3 5.4 59 3.6 NE 15 19 8 10 1019.7 1019.7 0.0
29/10:30pm 12.3 8.9 6.1 66 2.9 NE 13 15 7 8 1019.9 1019.9 0.0
29/10:00pm 12.4 8.7 6.5 67 2.8 NE 15 17 8 9 1020.1 1020.1 0.0
29/09:30pm 13.0 9.7 6.4 64 3.1 NE 13 15 7 8 1020.2 1020.2 0.0
29/09:00pm 13.2 9.5 6.5 64 3.2 NE 15 17 8 9 1019.9 1019.9 0.0
29/08:30pm 13.4 9.4 6.7 64 3.2 NE 17 19 9 10 1019.9 1019.9 0.0
29/08:00pm 13.0 10.2 6.8 66 3.0 NE 11 13 6 7 1020.0 1020.0 0.0
29/07:30pm 13.2 9.6 6.8 65 3.1 NE 15 17 8 9 1019.9 1019.9 0.0
29/07:00pm 13.3 9.9 7.5 68 2.8 NE 15 19 8 10 1019.9 1019.9 0.0
29/06:30pm 13.2 9.9 8.1 71 2.5 NE 15 17 8 9 1019.8 1019.8 0.0
29/06:00pm 14.6 11.7 8.3 66 3.2 NE 13 17 7 9 1019.8 1019.8 0.0
29/05:30pm 17.1 15.1 8.8 58 4.3 NNE 9 9 5 5 1019.8 1019.8 0.0
29/05:00pm 20.0 17.3 7.4 44 6.4 NNE 11 13 6 7 1019.8 1019.8 0.0
29/04:30pm 21.0 18.5 5.0 35 7.8 NE 7 11 4 6 1020.2 1020.2 0.0
29/04:00pm 20.7 17.7 5.9 38 7.4 NNE 11 15 6 8 1020.3 1020.3 0.0
29/03:30pm 21.1 18.0 5.5 36 7.7 N 11 17 6 9 1020.3 1020.3 0.0
29/03:00pm 21.0 18.1 6.5 39 7.3 N 11 15 6 8 1020.4 1020.4 0.0
29/02:30pm 21.0 17.9 5.4 36 7.7 NNW 11 20 6 11 1020.9 1020.9 0.0
29/02:00pm 20.5 17.0 5.3 37 7.5 NNW 13 19 7 10 1021.4 1021.4 0.0
29/01:30pm 20.2 16.4 5.8 39 7.1 NNW 15 22 8 12 1021.8 1021.8 0.0
29/01:00pm 19.5 14.9 5.6 40 6.8 NNW 19 26 10 14 1022.5 1022.5 0.0
29/12:30pm 19.1 14.8 7.8 48 5.8 N 20 26 11 14 1023.0 1023.0 0.0
29/12:00pm 18.4 14.2 8.1 51 5.3 NNW 20 26 11 14 1023.7 1023.7 0.0
29/11:30am 16.6 12.2 7.5 55 4.5 NNW 20 26 11 14 1024.2 1024.2 0.0
29/11:00am 15.4 11.3 7.9 61 3.8 NNW 19 26 10 14 1024.6 1024.6 0.0
29/10:30am 14.4 11.3 8.8 69 2.8 N 15 20 8 11 1024.8 1024.8 0.0
29/10:00am 13.0 9.3 7.9 71 2.5 N 17 19 9 10 1025.0 1025.0 0.0
29/09:30am 10.6 7.6 7.7 82 1.4 NNE 13 15 7 8 1025.2 1025.2 0.0
29/09:00am 9.0 5.7 6.4 84 1.2 NNE 13 17 7 9 1025.1 1025.1 0.0
29/08:30am 7.7 4.4 6.2 90 0.7 NNE 13 15 7 8 1025.0 1025.0 0.0
29/08:00am 6.1 2.9 5.1 93 0.4 NNE 11 13 6 7 1025.1 1025.1 0.0
29/07:30am 4.3 0.5 4.0 98 0.1 NNE 13 15 7 8 1024.7 1024.7 0.0
29/07:00am 2.2 -1.6 1.8 97 0.2 NE 11 13 6 7 1024.7 1024.7 0.0
29/06:30am 2.1 -1.7 1.5 96 0.2 NE 11 13 6 7 1024.6 1024.6 0.0
29/06:00am 2.6 -0.8 1.9 95 0.3 NE 9 11 5 6 1024.5 1024.5 0.0
29/05:30am 2.8 -0.6 2.1 95 0.3 NE 9 9 5 5 1024.4 1024.4 0.0
29/05:00am 3.6 0.0 3.2 97 0.2 NE 11 13 6 7 1024.2 1024.2 0.0
29/04:30am 3.2 -0.4 2.9 98 0.1 NE 11 13 6 7 1024.1 1024.1 0.0
29/04:00am 3.3 -1.1 2.9 97 0.2 NE 15 17 8 9 1024.1 1024.1 0.0
29/03:30am 3.2 -0.8 2.9 98 0.1 NE 13 13 7 7 1024.5 1024.5 0.0
29/03:00am 3.8 0.7 3.5 98 0.1 NE 9 9 5 5 1024.8 1024.8 0.0
29/02:30am 4.6 0.2 4.5 99 0.0 NE 17 19 9 10 1024.7 1024.7 0.0
29/02:00am 3.7 0.6 3.4 98 0.1 NE 9 11 5 6 1025.4 1025.4 0.0
29/01:30am 3.7 0.9 3.4 98 0.1 ENE 7 13 4 7 1025.4 1025.4 0.0
29/01:00am 3.3 0.1 3.0 98 0.1 E 9 11 5 6 1025.4 1025.4 0.0
29/12:30am 3.5 -0.1 3.1 97 0.2 E 11 11 6 6 1025.7 1025.7 0.0
29/12:00am 3.5 -0.1 3.1 97 0.2 E 11 13 6 7 1025.9 1025.9 0.0
 
Date/Time
CST
Temp
°C
App
Temp
°C
Dew
Point
°C
Rel
Hum
%
Delta-T
°C
Wind Press
QNH
hPa
Press
MSL
hPa
Rain since
9am
mm
Dir  Spd
km/h
Gust
km/h
Spd
kts
Gust
kts
28/11:30pm 4.1 1.0 3.7 97 0.2 ESE 9 13 5 7 1026.2 1026.2 0.0
28/11:00pm 5.1 1.5 4.8 98 0.1 ENE 13 17 7 9 1026.0 1026.0 0.0
28/10:30pm 5.6 2.4 5.2 97 0.2 NE 11 13 6 7 1026.4 1026.4 0.0
28/10:00pm 5.6 2.0 5.0 96 0.3 NE 13 17 7 9 1026.4 1026.4 0.0
28/09:30pm 5.8 3.4 5.2 96 0.3 ENE 7 9 4 5 1026.6 1026.6 0.0
28/09:00pm 6.1 3.4 5.4 95 0.3 ENE 9 11 5 6 1026.7 1026.7 0.0
28/08:30pm 7.1 4.2 6.4 95 0.3 E 11 15 6 8 1026.8 1026.8 0.0
28/08:00pm 8.6 5.6 7.5 93 0.5 ESE 13 15 7 8 1026.7 1026.7 0.0
28/07:30pm 9.7 6.9 8.5 92 0.6 SE 13 17 7 9 1026.7 1026.7 0.0
28/07:00pm 10.2 7.5 9.1 93 0.5 SSE 13 17 7 9 1026.6 1026.6 0.0
28/06:30pm 10.1 7.3 8.4 89 0.8 SSE 13 15 7 8 1026.6 1026.6 0.0
28/06:00pm 11.2 8.5 8.9 86 1.1 SSE 13 15 7 8 1026.5 1026.5 0.0
28/05:30pm 13.0 10.4 9.4 79 1.8 S 13 17 7 9 1026.4 1026.4 0.0
28/05:00pm 14.0 11.4 9.4 74 2.4 S 13 19 7 10 1026.4 1026.4 0.0
28/04:30pm 15.2 12.8 10.2 72 2.6 S 13 19 7 10 1026.5 1026.5 0.0
28/04:00pm 16.2 14.3 10.5 69 3.0 SSW 11 17 6 9 1026.5 1026.5 0.0
28/03:30pm 16.0 13.0 9.4 65 3.4 SW 15 19 8 10 1026.8 1026.8 0.0
28/03:00pm 17.8 15.8 8.6 55 4.7 NW 9 20 5 11 1026.7 1026.7 0.0
28/02:30pm 17.3 15.1 9.2 59 4.2 NW 11 17 6 9 1026.9 1026.9 0.0
28/02:00pm 17.4 15.1 9.1 58 4.3 WNW 11 17 6 9 1027.1 1027.1 0.0
28/01:30pm 16.5 14.7 9.4 63 3.7 WNW 9 13 5 7 1027.7 1027.7 0.0
28/01:00pm 16.4 14.3 9.6 64 3.5 NNW 11 17 6 9 1028.3 1028.3 0.0
28/12:30pm 15.7 13.0 9.1 65 3.4 NNW 13 22 7 12 1028.9 1028.9 0.0
28/12:00pm 15.0 12.5 9.6 70 2.8 N 13 17 7 9 1029.6 1029.6 0.0
28/11:30am 14.0 11.5 8.4 69 2.8 N 11 17 6 9 1030.3 1030.3 0.0
28/11:00am 14.0 11.6 8.8 71 2.6 NNE 11 17 6 9 1030.6 1030.6 0.0
28/10:30am 13.2 11.3 8.9 75 2.1 N 9 13 5 7 1031.1 1031.1 0.0
28/10:00am 11.3 9.7 8.7 84 1.3 N 7 9 4 5 1031.2 1031.2 0.0
28/09:30am 9.0 7.1 7.6 91 0.7 NNE 7 9 4 5 1031.1 1031.1 0.0
28/09:00am 6.8 4.7 5.7 93 0.5 NNE 6 7 3 4 1031.1 1031.1 0.0
28/08:30am 4.6 2.6 4.2 97 0.2 NNE 4 6 2 3 1030.7 1030.7 0.0
28/08:00am 2.2 -0.6 1.9 98 0.1 NE 6 7 3 4 1030.5 1030.5 0.0
28/07:30am 1.7 -1.4 1.4 98 0.1 NE 7 9 4 5 1030.1 1030.1 0.0
28/07:00am 1.0 -2.3 0.4 96 0.2 NE 7 9 4 5 1029.6 1029.6 0.0
28/06:30am 0.8 -1.1 0.4 97 0.1 CALM 0 9 0 5 1029.5 1029.5 0.0
28/06:00am 1.4 -0.4 1.0 97 0.1 CALM 0 0 0 0 1029.7 1029.7 0.0
28/05:30am 1.4 -0.5 0.8 96 0.2 CALM 0 0 0 0 1029.5 1029.5 0.0
28/05:00am 2.2 -0.7 1.6 96 0.2 NNE 6 6 3 3 1029.1 1029.1 0.0
28/04:30am 3.2 0.3 2.8 97 0.2 NNE 7 17 4 9 1028.8 1028.8 0.0
28/04:00am 3.1 0.2 2.8 98 0.1 NE 7 9 4 5 1028.8 1028.8 0.0
28/03:30am 2.1 -0.9 1.7 97 0.2 NNE 7 9 4 5 1028.8 1028.8 0.0
28/03:00am 2.7 -0.3 2.1 96 0.2 NNE 7 9 4 5 1029.2 1029.2 0.0
28/02:30am 2.4 -0.6 1.7 95 0.3 NNE 7 7 4 4 1029.1 1029.1 0.0
28/02:00am 3.8 0.6 2.9 94 0.4 NNE 9 11 5 6 1029.2 1029.2 0.0
28/01:30am 4.2 1.4 3.3 94 0.4 N 7 11 4 6 1029.5 1029.5 0.0
28/01:00am 5.1 2.2 4.4 95 0.3 NNE 9 11 5 6 1029.7 1029.7 0.0
28/12:30am 4.7 1.6 3.8 94 0.4 N 9 9 5 5 1029.8 1029.8 0.0
28/12:00am 4.6 2.4 3.6 93 0.4 NNE 4 7 2 4 1029.8 1029.8 0.0
 
Date/Time
CST
Temp
°C
App
Temp
°C
Dew
Point
°C
Rel
Hum
%
Delta-T
°C
Wind Press
QNH
hPa
Press
MSL
hPa
Rain since
9am
mm
Dir  Spd
km/h
Gust
km/h
Spd
kts
Gust
kts
27/11:30pm 4.8 3.3 2.8 87 0.8 CALM 0 0 0 0 1029.5 1029.5 0.0
27/11:00pm 8.1 7.2 6.1 87 0.9 CALM 0 0 0 0 1029.7 1029.7 0.0
27/10:30pm 7.9 5.5 5.4 84 1.1 SSW 7 11 4 6 1029.5 1029.5 0.0

Other Formats:

Comma delimited format used in spreadsheet applications
http://www.bom.gov.au/fwo/IDS60801/IDS60801.94653.axf

JavaScript Object Notation format (JSON) in row-major order
http://www.bom.gov.au/fwo/IDS60801/IDS60801.94653.json